Airfield :
LOGIN :

Register | Disclaimer

   EN    FR    IT 

 










Legend :    VFR   Marginal VFR   IFR   Intensive IFR   Very Intensive IFR
Visi :
Ceiling :
>= 8 km
>= 3000ft
5 to 8 km
1000 to 3000 ft
1500m to 5 km
500 to 1000 ft
800 to 1500m
200 to 500 ft
< 800m
< 200 ft
Symbols :   Thunderstorms  Fog  Heavy snow  Heavy precipitations  Wind > 20 kt
SIGMETs :     Misc.  Thunderstorms  Icing  Turbulence  Mountain Waves  Volcanic Ashes







- Airport Elevation : 26 ft
- IATA code : SYY
- Download approach charts


EGPO - Stornoway

CURRENT METAR :
  • 230720Z 21014KT 7000 -RADZ FEW004 SCT006 BKN012 15/14 Q1011

EXPIRED METARs :
  • 230650Z 20012KT 4500 RADZ FEW004 SCT006 BKN011 15/14 Q1011
  • 230620Z 20010KT 3500 RADZ FEW004 SCT006 BKN011 15/14 Q1011
  • 230550Z 20010KT 4500 -RADZ FEW004 BKN006 BKN011 15/14 Q1010
  • 230520Z 20011KT 4000 -RADZ FEW004 BKN006 BKN011 15/14 Q1010
  • 230450Z 20010KT 180V250 5000 -RADZ BKN006 BKN011 14/14 Q1010 RERA

TAF TAF EGPO
Valid from the 23 at 06:00 until the 23 at 15:00 UTC


230500Z 2306/2315 22018KT 9999 SCT006 BKN025
TEMPO 2306/2310 5000 RADZ BKN007
PROB40
TEMPO 2306/2309 2000 DZ BKN004
TEMPO 2308/2315 21022G34KT
TEMPO 2310/2312 BKN012
ATIS : +44 1851 707 444
No reported NOTAMs for that airfield.



MET'MAP, your aeronautical weather chart ! - Copyright ORBIFLY December 2007 - Disclaimer

ORBIFLY MET'MAP TEAM :

Programming & Development : Alexandra Zaïnal
Concept & Development : Baudouin d'Aumeries
Co-Development & Prog : Marc-Olivier Méhu
Technical & hardware support : Manuel Goepfert

Contact : metmap@orbifly.com




SOURCES & CREDITS :

   NOAA